Observation data for Haskell on 02/11/2018      Previous  Date  Next       Current Mesonet Observations  Soil Data  Daily Summary Page  Observations in Plain Language
KHA1 110600Z 02015KT M05/M12 A3007 RMK A01 T10541119  RH  059%=      5-min Rain = 0
KHA1 110605Z 02015KT M05/M12 A3006 RMK A01 T10541120  RH  060%=      5-min Rain = 0
KHA1 110610Z 01014KT M06/M12 A3006 RMK A01 T10551120  RH  060%=      5-min Rain = 0
KHA1 110615Z 01013KT M06/M12 A3006 RMK A01 T10551120  RH  060%=      5-min Rain = 0
KHA1 110620Z 01013KT M06/M12 A3006 RMK A01 T10551121  RH  060%=      5-min Rain = 0
KHA1 110625Z 01014KT M06/M12 A3006 RMK A01 T10561121  RH  060%=      5-min Rain = 0
KHA1 110630Z 01013G18KT M06/M12 A3006 RMK A01 T10561121  RH  060%=      5-min Rain = 0
KHA1 110635Z 00013KT M06/M12 A3006 RMK A01 T10561121  RH  060%=      5-min Rain = 0
KHA1 110640Z 01014KT M06/M12 A3006 RMK A01 T10571121  RH  060%=      5-min Rain = 0
KHA1 110645Z 01015G20KT M06/M12 A3007 RMK A01 T10571122  RH  060%=      5-min Rain = 0
KHA1 110650Z 01016KT M06/M12 A3007 RMK A01 T10581122  RH  060%=      5-min Rain = 0
KHA1 110655Z 00014KT M06/M12 A3007 RMK A01 T10581122  RH  060%=      5-min Rain = 0
KHA1 110700Z 01013KT M06/M12 A3007 RMK A01 T10581122  RH  060%=      5-min Rain = 0
KHA1 110705Z 01011KT M06/M12 A3007 RMK A01 T10591123  RH  060%=      5-min Rain = 0
KHA1 110710Z 00012KT M06/M12 A3007 RMK A01 T10591122  RH  060%=      5-min Rain = 0
KHA1 110715Z 00010KT M06/M12 A3007 RMK A01 T10591122  RH  060%=      5-min Rain = 0
KHA1 110720Z 00011KT M06/M12 A3007 RMK A01 T10581122  RH  060%=      5-min Rain = 0
KHA1 110725Z 00011KT M06/M12 A3007 RMK A01 T10581122  RH  060%=      5-min Rain = 0
KHA1 110730Z 00012KT M06/M12 A3008 RMK A01 T10581122  RH  060%=      5-min Rain = 0
KHA1 110735Z 00010KT M06/M12 A3008 RMK A01 T10571122  RH  060%=      5-min Rain = 0
KHA1 110740Z 36011KT M06/M12 A3009 RMK A01 T10561121  RH  060%=      5-min Rain = 0
KHA1 110745Z 36013KT M06/M12 A3008 RMK A01 T10551121  RH  060%=      5-min Rain = 0
KHA1 110750Z 36014KT M06/M12 A3008 RMK A01 T10551121  RH  059%=      5-min Rain = 0
KHA1 110755Z 00015KT M06/M12 A3009 RMK A01 T10551121  RH  059%=      5-min Rain = 0
KHA1 110800Z 00014KT M06/M12 A3009 RMK A01 T10551121  RH  060%=      5-min Rain = 0
KHA1 110805Z 00014KT M06/M12 A3009 RMK A01 T10551120  RH  059%=      5-min Rain = 0
KHA1 110810Z 36013KT M05/M12 A3009 RMK A01 T10541121  RH  059%=      5-min Rain = 0
KHA1 110815Z 36013KT M05/M12 A3009 RMK A01 T10541121  RH  059%=      5-min Rain = 0
KHA1 110820Z 36013KT M05/M12 A3009 RMK A01 T10541121  RH  059%=      5-min Rain = 0
KHA1 110825Z 36014KT M05/M12 A3009 RMK A01 T10541121  RH  059%=      5-min Rain = 0
KHA1 110830Z 35016KT M05/M12 A3009 RMK A01 T10531121  RH  059%=      5-min Rain = 0
KHA1 110835Z 36017KT M05/M12 A3009 RMK A01 T10531121  RH  058%=      5-min Rain = 0
KHA1 110840Z 36017KT M05/M12 A3009 RMK A01 T10531122  RH  058%=      5-min Rain = 0
KHA1 110845Z 35017KT M05/M12 A3008 RMK A01 T10531122  RH  058%=      5-min Rain = 0
KHA1 110850Z 00016G21KT M05/M12 A3008 RMK A01 T10531122  RH  058%=      5-min Rain = 0
KHA1 110855Z 36017G22KT M05/M12 A3009 RMK A01 T10531121  RH  058%=      5-min Rain = 0
KHA1 110900Z 00017KT M05/M12 A301 RMK A01 T10531121  RH  058%=      5-min Rain = 0
KHA1 110905Z 36018KT M05/M12 A301 RMK A01 T10531121  RH  058%=      5-min Rain = 0
KHA1 110910Z 36017KT M05/M12 A301 RMK A01 T10531121  RH  058%=      5-min Rain = 0
KHA1 110915Z 36015KT M05/M12 A301 RMK A01 T10521121  RH  058%=      5-min Rain = 0
KHA1 110920Z 36018KT M05/M12 A301 RMK A01 T10531121  RH  059%=      5-min Rain = 0
KHA1 110925Z 36017G22KT M05/M12 A301 RMK A01 T10531120  RH  059%=      5-min Rain = 0
KHA1 110930Z 35017KT M05/M12 A301 RMK A01 T10531121  RH  059%=      5-min Rain = 0
KHA1 110935Z 00017G22KT M05/M12 A3011 RMK A01 T10531120  RH  059%=      5-min Rain = 0
KHA1 110940Z 00017KT M05/M12 A3011 RMK A01 T10531120  RH  059%=      5-min Rain = 0
KHA1 110945Z 36015G20KT M05/M12 A3011 RMK A01 T10531120  RH  059%=      5-min Rain = 0
KHA1 110950Z 36017KT M05/M12 A3011 RMK A01 T10541121  RH  059%=      5-min Rain = 0
KHA1 110955Z 35016G21KT M06/M12 A3011 RMK A01 T10551121  RH  059%=      5-min Rain = 0
KHA1 111000Z 36016G21KT M06/M12 A3011 RMK A01 T10551122  RH  059%=      5-min Rain = 0
KHA1 111005Z 36014G20KT M06/M12 A3011 RMK A01 T10551121  RH  059%=      5-min Rain = 0
KHA1 111010Z 00016KT M05/M12 A3012 RMK A01 T10541120  RH  059%=      5-min Rain = 0
KHA1 111015Z 36016KT M05/M12 A3012 RMK A01 T10541120  RH  059%=      5-min Rain = 0
KHA1 111020Z 36016G21KT M05/M12 A3012 RMK A01 T10541120  RH  059%=      5-min Rain = 0
KHA1 111025Z 35014G20KT M05/M12 A3012 RMK A01 T10531120  RH  059%=      5-min Rain = 0
KHA1 111030Z 00015KT M05/M12 A3012 RMK A01 T10521120  RH  059%=      5-min Rain = 0
KHA1 111035Z 00014KT M05/M12 A3013 RMK A01 T10521120  RH  059%=      5-min Rain = 0
KHA1 111040Z 00016KT M05/M12 A3012 RMK A01 T10521120  RH  059%=      5-min Rain = 0
KHA1 111045Z 00013KT M05/M12 A3013 RMK A01 T10521119  RH  059%=      5-min Rain = 0
KHA1 111050Z 36014KT M05/M12 A3013 RMK A01 T10521119  RH  059%=      5-min Rain = 0
KHA1 111055Z 36014KT M05/M12 A3013 RMK A01 T10511119  RH  058%=      5-min Rain = 0
KHA1 111100Z 36013G18KT M05/M12 A3013 RMK A01 T10511119  RH  058%=      5-min Rain = 0
KHA1 111105Z 36017KT M05/M12 A3013 RMK A01 T10511119  RH  058%=      5-min Rain = 0
KHA1 111110Z 36014KT M05/M12 A3013 RMK A01 T10511119  RH  058%=      5-min Rain = 0
KHA1 111115Z 35015KT M05/M12 A3013 RMK A01 T10501119  RH  058%=      5-min Rain = 0
KHA1 111120Z 00015KT M05/M12 A3014 RMK A01 T10501119  RH  059%=      5-min Rain = 0
KHA1 111125Z 00015KT M05/M12 A3014 RMK A01 T10511118  RH  059%=      5-min Rain = 0
KHA1 111130Z 00016KT M05/M12 A3014 RMK A01 T10511118  RH  059%=      5-min Rain = 0
KHA1 111135Z 36013G18KT M05/M12 A3014 RMK A01 T10501117  RH  059%=      5-min Rain = 0
KHA1 111140Z 00014G19KT M05/M12 A3015 RMK A01 T10501117  RH  059%=      5-min Rain = 0
KHA1 111145Z 35016KT M05/M12 A3015 RMK A01 T10501117  RH  059%=      5-min Rain = 0
KHA1 111150Z 36015KT M05/M12 A3015 RMK A01 T10501117  RH  059%=      5-min Rain = 0
KHA1 111155Z 01014KT M05/M12 A3016 RMK A01 T10511116  RH  060%=      5-min Rain = 0
KHA1 111200Z 36014KT M05/M12 A3016 RMK A01 T10501116  RH  059%=      5-min Rain = 0
KHA1 111205Z 01014KT M05/M12 A3016 RMK A01 T10511116  RH  060%=      5-min Rain = 0
KHA1 111210Z 00013KT M05/M12 A3017 RMK A01 T10511116  RH  060%=      5-min Rain = 0
KHA1 111215Z 35014KT M05/M12 A3017 RMK A01 T10501116  RH  060%=      5-min Rain = 0
KHA1 111220Z 35014KT M05/M12 A3016 RMK A01 T10501116  RH  059%=      5-min Rain = 0
KHA1 111225Z 35013KT M05/M12 A3017 RMK A01 T10501115  RH  060%=      5-min Rain = 0
KHA1 111230Z 35013KT M05/M12 A3017 RMK A01 T10501115  RH  060%=      5-min Rain = 0
KHA1 111235Z 35013KT M05/M12 A3017 RMK A01 T10491115  RH  060%=      5-min Rain = 0
KHA1 111240Z 35013KT M05/M12 A3017 RMK A01 T10491115  RH  059%=      5-min Rain = 0
KHA1 111245Z 35013KT M05/M12 A3018 RMK A01 T10491115  RH  059%=      5-min Rain = 0
KHA1 111250Z 35013KT M05/M11 A3018 RMK A01 T10491114  RH  060%=      5-min Rain = 0
KHA1 111255Z 35015KT M05/M11 A3017 RMK A01 T10481114  RH  060%=      5-min Rain = 0
KHA1 111300Z 35016KT M05/M11 A3018 RMK A01 T10491113  RH  060%=      5-min Rain = 0
KHA1 111305Z 35014KT M05/M11 A3018 RMK A01 T10481113  RH  060%=      5-min Rain = 0
KHA1 111310Z 34013G18KT M05/M11 A3019 RMK A01 T10481112  RH  060%=      5-min Rain = 0
KHA1 111315Z 34016KT M05/M11 A3018 RMK A01 T10481113  RH  060%=      5-min Rain = 0
KHA1 111320Z 35016KT M05/M11 A3019 RMK A01 T10481113  RH  060%=      5-min Rain = 0
KHA1 111325Z 35014KT M05/M11 A3019 RMK A01 T10481113  RH  060%=      5-min Rain = 0
KHA1 111330Z 35014KT M05/M11 A302 RMK A01 T10481113  RH  060%=      5-min Rain = 0
KHA1 111335Z 35015KT M05/M11 A302 RMK A01 T10481113  RH  060%=      5-min Rain = 0
KHA1 111340Z 35015KT M05/M11 A302 RMK A01 T10481113  RH  060%=      5-min Rain = 0
KHA1 111345Z 34015KT M05/M11 A302 RMK A01 T10481113  RH  060%=      5-min Rain = 0
KHA1 111350Z 34015KT M05/M11 A302 RMK A01 T10481113  RH  060%=      5-min Rain = 0
KHA1 111355Z 34015KT M05/M11 A302 RMK A01 T10481113  RH  060%=      5-min Rain = 0
KHA1 111400Z 34016KT M05/M11 A3021 RMK A01 T10471113  RH  060%=      5-min Rain = 0
KHA1 111405Z 34014G19KT M05/M11 A3021 RMK A01 T10481113  RH  060%=      5-min Rain = 0
KHA1 111410Z 34015KT M05/M11 A3021 RMK A01 T10471114  RH  059%=      5-min Rain = 0
KHA1 111415Z 34016KT M05/M11 A3022 RMK A01 T10481114  RH  059%=      5-min Rain = 0
KHA1 111420Z 35017KT M05/M11 A3022 RMK A01 T10481114  RH  059%=      5-min Rain = 0
KHA1 111425Z 35015KT M05/M11 A3023 RMK A01 T10471114  RH  059%=      5-min Rain = 0
KHA1 111430Z 35016KT M05/M12 A3023 RMK A01 T10481115  RH  059%=      5-min Rain = 0
KHA1 111435Z 34016KT M05/M12 A3023 RMK A01 T10481115  RH  059%=      5-min Rain = 0
KHA1 111440Z 34016KT M05/M12 A3023 RMK A01 T10471116  RH  058%=      5-min Rain = 0
KHA1 111445Z 35017KT M05/M12 A3023 RMK A01 T10471117  RH  058%=      5-min Rain = 0
KHA1 111450Z 34017G22KT M05/M12 A3023 RMK A01 T10471118  RH  057%=      5-min Rain = 0
KHA1 111455Z 36018KT M05/M12 A3023 RMK A01 T10481118  RH  058%=      5-min Rain = 0
KHA1 111500Z 35016KT M05/M12 A3024 RMK A01 T10471118  RH  058%=      5-min Rain = 0
KHA1 111505Z 35016KT M05/M12 A3024 RMK A01 T10471118  RH  058%=      5-min Rain = 0
KHA1 111510Z 34017G22KT M05/M12 A3024 RMK A01 T10471118  RH  057%=      5-min Rain = 0
KHA1 111515Z 35016KT M05/M12 A3025 RMK A01 T10471118  RH  057%=      5-min Rain = 0
KHA1 111520Z 35015G20KT M05/M12 A3025 RMK A01 T10461118  RH  057%=      5-min Rain = 0
KHA1 111525Z 35015KT M05/M12 A3025 RMK A01 T10451118  RH  056%=      5-min Rain = 0
KHA1 111530Z 35015G20KT M05/M12 A3025 RMK A01 T10451118  RH  056%=      5-min Rain = 0
KHA1 111535Z 35015KT M04/M12 A3025 RMK A01 T10441118  RH  056%=      5-min Rain = 0
KHA1 111540Z 34016G21KT M05/M12 A3025 RMK A01 T10451119  RH  056%=      5-min Rain = 0
KHA1 111545Z 34014KT M04/M12 A3025 RMK A01 T10441118  RH  056%=      5-min Rain = 0
KHA1 111550Z 34015KT M04/M12 A3026 RMK A01 T10431119  RH  055%=      5-min Rain = 0
KHA1 111555Z 34016KT M04/M12 A3025 RMK A01 T10431119  RH  055%=      5-min Rain = 0
KHA1 111600Z 34015KT M04/M12 A3026 RMK A01 T10421119  RH  055%=      5-min Rain = 0
KHA1 111605Z 34015G21KT M04/M12 A3025 RMK A01 T10421119  RH  054%=      5-min Rain = 0
KHA1 111610Z 34016KT M04/M12 A3026 RMK A01 T10401118  RH  054%=      5-min Rain = 0
KHA1 111615Z 35016KT M04/M12 A3026 RMK A01 T10371116  RH  054%=      5-min Rain = 0
KHA1 111620Z 34015G21KT M03/M12 A3026 RMK A01 T10331115  RH  053%=      5-min Rain = 0
KHA1 111625Z 34013KT M03/M12 A3026 RMK A01 T10301115  RH  052%=      5-min Rain = 0
KHA1 111630Z 34014KT M03/M11 A3027 RMK A01 T10271113  RH  051%=      5-min Rain = 0
KHA1 111635Z 34014KT M02/M11 A3027 RMK A01 T10231113  RH  050%=      5-min Rain = 0
KHA1 111640Z 34014KT M03/M12 A3027 RMK A01 T10271116  RH  050%=      5-min Rain = 0
KHA1 111645Z 34015G22KT M03/M12 A3026 RMK A01 T10271118  RH  049%=      5-min Rain = 0
KHA1 111650Z 35015KT M03/M12 A3027 RMK A01 T10251117  RH  049%=      5-min Rain = 0
KHA1 111655Z 35015G21KT M03/M12 A3027 RMK A01 T10251118  RH  049%=      5-min Rain = 0
KHA1 111700Z 36015KT M02/M12 A3027 RMK A01 T10221118  RH  048%=      5-min Rain = 0
KHA1 111705Z 35015G20KT M02/M12 A3027 RMK A01 T10191118  RH  047%=      5-min Rain = 0
KHA1 111710Z 35014KT M02/M12 A3027 RMK A01 T10181120  RH  045%=      5-min Rain = 0
KHA1 111715Z 34013KT M01/M12 A3027 RMK A01 T10141119  RH  044%=      5-min Rain = 0
KHA1 111720Z 36013G19KT M01/M12 A3027 RMK A01 T10061119  RH  042%=      5-min Rain = 0
KHA1 111725Z 36010G16KT M01/M12 A3027 RMK A01 T10081122  RH  042%=      5-min Rain = 0
KHA1 111730Z 34012G18KT M01/M12 A3027 RMK A01 T10071122  RH  041%=      5-min Rain = 0
KHA1 111735Z 33011G16KT M00/M12 A3026 RMK A01 T10041122  RH  040%=      5-min Rain = 0
KHA1 111740Z 35011G17KT M01/M12 A3026 RMK A01 T10051123  RH  040%=      5-min Rain = 0
KHA1 111745Z 35010KT M00/M13 A3026 RMK A01 T10021125  RH  039%=      5-min Rain = 0
KHA1 111750Z 35012G17KT M00/M13 A3026 RMK A01 T10041126  RH  039%=      5-min Rain = 0
KHA1 111755Z 34012KT M00/M13 A3026 RMK A01 T10031126  RH  039%=      5-min Rain = 0
KHA1 111800Z 35011G16KT M00/M13 A3026 RMK A01 T10041127  RH  039%=      5-min Rain = 0
KHA1 111805Z 35012KT M00/M13 A3026 RMK A01 T10031126  RH  039%=      5-min Rain = 0
KHA1 111810Z 34012KT M01/M13 A3026 RMK A01 T10051128  RH  038%=      5-min Rain = 0
KHA1 111815Z 35011G18KT M00/M13 A3026 RMK A01 T10041128  RH  038%=      5-min Rain = 0
KHA1 111820Z 33009G14KT M00/M13 A3026 RMK A01 T10031127  RH  038%=      5-min Rain = 0
KHA1 111825Z 36011G16KT M00/M13 A3026 RMK A01 T10031130  RH  037%=      5-min Rain = 0
KHA1 111830Z 35009KT M00/M13 A3026 RMK A01 T10021129  RH  038%=      5-min Rain = 0
KHA1 111835Z 36011KT M00/M13 A3025 RMK A01 T10011130  RH  037%=      5-min Rain = 0
KHA1 111840Z 00012KT 00/M13 A3025 RMK A01 T00021128  RH  037%=      5-min Rain = 0
KHA1 111845Z 36010G16KT 00/M13 A3025 RMK A01 T00021129  RH  036%=      5-min Rain = 0
KHA1 111850Z 34011KT 01/M13 A3025 RMK A01 T00051127  RH  036%=      5-min Rain = 0
KHA1 111855Z 34012KT 01/M13 A3025 RMK A01 T00071127  RH  036%=      5-min Rain = 0
KHA1 111900Z 35012KT 01/M13 A3025 RMK A01 T00071128  RH  036%=      5-min Rain = 0
KHA1 111905Z 35012G17KT 01/M13 A3024 RMK A01 T00101126  RH  035%=      5-min Rain = 0
KHA1 111910Z 34011G18KT 01/M13 A3024 RMK A01 T00121125  RH  035%=      5-min Rain = 0
KHA1 111915Z 35013KT 01/M13 A3024 RMK A01 T00121127  RH  035%=      5-min Rain = 0
KHA1 111920Z 35011KT 01/M13 A3023 RMK A01 T00111127  RH  035%=      5-min Rain = 0
KHA1 111925Z 35012KT 02/M13 A3023 RMK A01 T00151125  RH  034%=      5-min Rain = 0
KHA1 111930Z 35011G16KT 02/M12 A3022 RMK A01 T00201124  RH  033%=      5-min Rain = 0
KHA1 111935Z 33011KT 02/M13 A3022 RMK A01 T00171125  RH  034%=      5-min Rain = 0
KHA1 111940Z 34011KT 02/M12 A3022 RMK A01 T00201124  RH  033%=      5-min Rain = 0
KHA1 111945Z 34008G13KT 02/M12 A3021 RMK A01 T00201124  RH  033%=      5-min Rain = 0
KHA1 111950Z 35011G16KT 03/M12 A3021 RMK A01 T00261123  RH  032%=      5-min Rain = 0
KHA1 111955Z 35009G14KT 02/M13 A3021 RMK A01 T00241125  RH  032%=      5-min Rain = 0
KHA1 112000Z 00009G15KT 03/M12 A3021 RMK A01 T00261124  RH  032%=      5-min Rain = 0
KHA1 112005Z 36009G16KT 03/M12 A3021 RMK A01 T00251124  RH  032%=      5-min Rain = 0
KHA1 112010Z 35011KT 03/M12 A3021 RMK A01 T00281124  RH  031%=      5-min Rain = 0
KHA1 112015Z 35008G15KT 03/M13 A3021 RMK A01 T00251125  RH  032%=      5-min Rain = 0
KHA1 112020Z 35012KT 03/M12 A302 RMK A01 T00301123  RH  031%=      5-min Rain = 0
KHA1 112025Z 35011KT 03/M12 A302 RMK A01 T00331122  RH  031%=      5-min Rain = 0
KHA1 112030Z 00011KT 03/M12 A302 RMK A01 T00331123  RH  031%=      5-min Rain = 0
KHA1 112035Z 36011G17KT 04/M12 A302 RMK A01 T00351121  RH  031%=      5-min Rain = 0
KHA1 112040Z 34011G16KT 04/M12 A302 RMK A01 T00371121  RH  030%=      5-min Rain = 0
KHA1 112045Z 34009G16KT 04/M12 A302 RMK A01 T00401118  RH  030%=      5-min Rain = 0
KHA1 112050Z 34013KT 04/M12 A3019 RMK A01 T00441118  RH  029%=      5-min Rain = 0
KHA1 112055Z 36010G15KT 04/M12 A302 RMK A01 T00421119  RH  030%=      5-min Rain = 0
KHA1 112100Z 35010KT 04/M12 A3019 RMK A01 T00421119  RH  030%=      5-min Rain = 0
KHA1 112105Z 33011KT 04/M12 A3019 RMK A01 T00431119  RH  029%=      5-min Rain = 0
KHA1 112110Z 34010KT 05/M12 A302 RMK A01 T00451118  RH  029%=      5-min Rain = 0
KHA1 112115Z 35010G15KT 05/M12 A3019 RMK A01 T00451119  RH  029%=      5-min Rain = 0
KHA1 112120Z 01011KT 05/M12 A3019 RMK A01 T00471118  RH  029%=      5-min Rain = 0
KHA1 112125Z 01009G14KT 05/M12 A3019 RMK A01 T00481119  RH  029%=      5-min Rain = 0
KHA1 112130Z 34008G14KT 05/M12 A3019 RMK A01 T00461118  RH  029%=      5-min Rain = 0
KHA1 112135Z 35009KT 05/M12 A3019 RMK A01 T00491117  RH  029%=      5-min Rain = 0
KHA1 112140Z 01011KT 05/M12 A3019 RMK A01 T00501117  RH  029%=      5-min Rain = 0
KHA1 112145Z 02009KT 05/M12 A3019 RMK A01 T00471117  RH  029%=      5-min Rain = 0
KHA1 112150Z 00008KT 05/M12 A3019 RMK A01 T00501117  RH  029%=      5-min Rain = 0
KHA1 112155Z 00009G16KT 05/M12 A3019 RMK A01 T00511117  RH  028%=      5-min Rain = 0
KHA1 112200Z 36009KT 05/M12 A3019 RMK A01 T00501117  RH  028%=      5-min Rain = 0
KHA1 112205Z 01007KT 05/M12 A3019 RMK A01 T00491119  RH  028%=      5-min Rain = 0
KHA1 112210Z 00005KT 05/M12 A3019 RMK A01 T00451120  RH  029%=      5-min Rain = 0
KHA1 112215Z 00007G12KT 05/M12 A3019 RMK A01 T00461119  RH  029%=      5-min Rain = 0
KHA1 112220Z 01009KT 05/M12 A3019 RMK A01 T00501119  RH  028%=      5-min Rain = 0
KHA1 112225Z 01010KT 05/M12 A3019 RMK A01 T00491119  RH  028%=      5-min Rain = 0
KHA1 112230Z 01009KT 05/M12 A3019 RMK A01 T00491120  RH  028%=      5-min Rain = 0
KHA1 112235Z 00006KT 05/M12 A3019 RMK A01 T00481120  RH  028%=      5-min Rain = 0
KHA1 112240Z 01006KT 05/M12 A3019 RMK A01 T00471120  RH  028%=      5-min Rain = 0
KHA1 112245Z 01007KT 05/M12 A3019 RMK A01 T00511119  RH  028%=      5-min Rain = 0
KHA1 112250Z 01009KT 05/M12 A3019 RMK A01 T00511121  RH  028%=      5-min Rain = 0
KHA1 112255Z 01007KT 05/M12 A3019 RMK A01 T00481122  RH  028%=      5-min Rain = 0
KHA1 112300Z 35008KT 05/M12 A3019 RMK A01 T00451123  RH  028%=      5-min Rain = 0
KHA1 112305Z 01009KT 05/M12 A3019 RMK A01 T00451123  RH  028%=      5-min Rain = 0
KHA1 112310Z 00007KT 05/M12 A302 RMK A01 T00451123  RH  028%=      5-min Rain = 0
KHA1 112315Z 00008KT 05/M12 A302 RMK A01 T00471122  RH  028%=      5-min Rain = 0
KHA1 112320Z 00008KT 05/M12 A302 RMK A01 T00461123  RH  028%=      5-min Rain = 0
KHA1 112325Z 02008KT 05/M12 A302 RMK A01 T00451123  RH  028%=      5-min Rain = 0
KHA1 112330Z 01006KT 04/M12 A302 RMK A01 T00431124  RH  028%=      5-min Rain = 0
KHA1 112335Z 02006KT 04/M13 A302 RMK A01 T00421125  RH  028%=      5-min Rain = 0
KHA1 112340Z 01006KT 04/M13 A3021 RMK A01 T00431125  RH  028%=      5-min Rain = 0
KHA1 112345Z 02007KT 04/M13 A3021 RMK A01 T00421125  RH  028%=      5-min Rain = 0
KHA1 112350Z 01007KT 04/M13 A3021 RMK A01 T00411126  RH  028%=      5-min Rain = 0
KHA1 112355Z 01007KT 04/M13 A3021 RMK A01 T00401127  RH  028%=      5-min Rain = 0
KHA1 120000Z 02007KT 04/M13 A3021 RMK A01 T00391128  RH  028%=      5-min Rain = 0
KHA1 120005Z 02006KT 04/M13 A3022 RMK A01 T00371128  RH  029%=      5-min Rain = 0
KHA1 120010Z 02006KT 04/M13 A3022 RMK A01 T00351129  RH  029%=      5-min Rain = 0
KHA1 120015Z 01006KT 03/M13 A3022 RMK A01 T00331131  RH  029%=      5-min Rain = 0
KHA1 120020Z 01007KT 03/M13 A3022 RMK A01 T00301133  RH  029%=      5-min Rain = 0
KHA1 120025Z 01006KT 03/M14 A3022 RMK A01 T00271135  RH  029%=      5-min Rain = 0
KHA1 120030Z 01006KT 02/M14 A3023 RMK A01 T00241137  RH  029%=      5-min Rain = 0
KHA1 120035Z 01006KT 02/M14 A3023 RMK A01 T00201139  RH  029%=      5-min Rain = 0
KHA1 120040Z 01006KT 02/M14 A3023 RMK A01 T00181140  RH  030%=      5-min Rain = 0
KHA1 120045Z 01007KT 02/M14 A3023 RMK A01 T00151142  RH  030%=      5-min Rain = 0
KHA1 120050Z 01007KT 01/M14 A3023 RMK A01 T00121143  RH  030%=      5-min Rain = 0
KHA1 120055Z 02006KT 01/M15 A3023 RMK A01 T00081145  RH  030%=      5-min Rain = 0
KHA1 120100Z 02006KT 00/M15 A3024 RMK A01 T00041148  RH  031%=      5-min Rain = 0
KHA1 120105Z 02006KT 00/M15 A3024 RMK A01 T00021150  RH  031%=      5-min Rain = 0
KHA1 120110Z 02006KT M00/M15 A3024 RMK A01 T10011152  RH  031%=      5-min Rain = 0
KHA1 120115Z 03006KT M01/M15 A3024 RMK A01 T10051154  RH  031%=      5-min Rain = 0
KHA1 120120Z 02006KT M01/M16 A3024 RMK A01 T10071155  RH  031%=      5-min Rain = 0
KHA1 120125Z 02007KT M01/M15 A3024 RMK A01 T10051154  RH  031%=      5-min Rain = 0
KHA1 120130Z 02006KT M01/M16 A3024 RMK A01 T10071156  RH  031%=      5-min Rain = 0
KHA1 120135Z 03007KT M01/M16 A3024 RMK A01 T10131161  RH  031%=      5-min Rain = 0
KHA1 120140Z 03007KT M02/M16 A3024 RMK A01 T10201163  RH  032%=      5-min Rain = 0
KHA1 120145Z 04007KT M02/M16 A3024 RMK A01 T10221161  RH  033%=      5-min Rain = 0
KHA1 120150Z 04007KT M02/M16 A3024 RMK A01 T10221158  RH  034%=      5-min Rain = 0
KHA1 120155Z 05007KT M02/M15 A3025 RMK A01 T10201154  RH  035%=      5-min Rain = 0
KHA1 120200Z 06004KT M02/M15 A3025 RMK A01 T10151146  RH  036%=      5-min Rain = 0
KHA1 120205Z 06004KT M01/M15 A3025 RMK A01 T10141145  RH  036%=      5-min Rain = 0
KHA1 120210Z 06005KT M01/M14 A3025 RMK A01 T10111139  RH  037%=      5-min Rain = 0
KHA1 120215Z 06005KT M01/M14 A3025 RMK A01 T10101138  RH  037%=      5-min Rain = 0
KHA1 120220Z 06005KT M01/M14 A3025 RMK A01 T10081136  RH  037%=      5-min Rain = 0
KHA1 120225Z 06005KT M01/M14 A3025 RMK A01 T10091139  RH  036%=      5-min Rain = 0
KHA1 120230Z 07005KT M01/M14 A3025 RMK A01 T10111136  RH  038%=      5-min Rain = 0
KHA1 120235Z 07005KT M01/M14 A3026 RMK A01 T10081136  RH  037%=      5-min Rain = 0
KHA1 120240Z 08004KT M01/M14 A3026 RMK A01 T10061136  RH  036%=      5-min Rain = 0
KHA1 120245Z 10004KT M01/M14 A3026 RMK A01 T10051136  RH  036%=      5-min Rain = 0
KHA1 120250Z 09004KT M01/M14 A3026 RMK A01 T10051135  RH  036%=      5-min Rain = 0
KHA1 120255Z 08004KT M01/M14 A3026 RMK A01 T10051135  RH  036%=      5-min Rain = 0
KHA1 120300Z 09005KT M01/M14 A3026 RMK A01 T10061135  RH  037%=      5-min Rain = 0
KHA1 120305Z 09005KT M01/M13 A3026 RMK A01 T10071134  RH  037%=      5-min Rain = 0
KHA1 120310Z 10004KT M01/M13 A3027 RMK A01 T10071134  RH  037%=      5-min Rain = 0
KHA1 120315Z 10004KT M01/M13 A3027 RMK A01 T10071133  RH  038%=      5-min Rain = 0
KHA1 120320Z 10004KT M01/M13 A3027 RMK A01 T10081132  RH  038%=      5-min Rain = 0
KHA1 120325Z 08004KT M01/M13 A3027 RMK A01 T10081131  RH  039%=      5-min Rain = 0
KHA1 120330Z 08005KT M01/M13 A3027 RMK A01 T10091130  RH  039%=      5-min Rain = 0
KHA1 120335Z 09004KT M01/M13 A3027 RMK A01 T10101129  RH  040%=      5-min Rain = 0
KHA1 120340Z 09005KT M01/M13 A3028 RMK A01 T10111128  RH  040%=      5-min Rain = 0
KHA1 120345Z 10004KT M01/M13 A3028 RMK A01 T10121129  RH  040%=      5-min Rain = 0
KHA1 120350Z 09004KT M01/M13 A3028 RMK A01 T10131129  RH  041%=      5-min Rain = 0
KHA1 120355Z 09004KT M01/M13 A3028 RMK A01 T10131128  RH  041%=      5-min Rain = 0
KHA1 120400Z 09004KT M01/M13 A3028 RMK A01 T10141129  RH  041%=      5-min Rain = 0
KHA1 120405Z 09004KT M01/M13 A3028 RMK A01 T10141129  RH  041%=      5-min Rain = 0
KHA1 120410Z 09004KT M01/M13 A3028 RMK A01 T10141129  RH  041%=      5-min Rain = 0
KHA1 120415Z 09005KT M01/M13 A3028 RMK A01 T10141130  RH  041%=      5-min Rain = 0
KHA1 120420Z 09004KT M02/M13 A3028 RMK A01 T10151130  RH  041%=      5-min Rain = 0
KHA1 120425Z 09004KT M02/M13 A3029 RMK A01 T10161130  RH  041%=      5-min Rain = 0
KHA1 120430Z 11003KT M02/M13 A3029 RMK A01 T10161130  RH  041%=      5-min Rain = 0
KHA1 120435Z 10003KT M02/M13 A3029 RMK A01 T10171131  RH  041%=      5-min Rain = 0
KHA1 120440Z 11003KT M02/M13 A3029 RMK A01 T10171129  RH  042%=      5-min Rain = 0
KHA1 120445Z 10003KT M02/M13 A3029 RMK A01 T10181129  RH  042%=      5-min Rain = 0
KHA1 120450Z 09004KT M02/M13 A3029 RMK A01 T10191129  RH  042%=      5-min Rain = 0
KHA1 120455Z 09004KT M02/M13 A3029 RMK A01 T10191130  RH  042%=      5-min Rain = 0
KHA1 120500Z 09004KT M02/M13 A3029 RMK A01 T10201130  RH  042%=      5-min Rain = 0
KHA1 120505Z 09004KT M02/M13 A3029 RMK A01 T10211130  RH  043%=      5-min Rain = 0
KHA1 120510Z 09004KT M02/M13 A3029 RMK A01 T10211130  RH  043%=      5-min Rain = 0
KHA1 120515Z 08004KT M02/M13 A3029 RMK A01 T10211130  RH  043%=      5-min Rain = 0
KHA1 120520Z 09004KT M02/M13 A303 RMK A01 T10221130  RH  043%=      5-min Rain = 0
KHA1 120525Z 09004KT M02/M13 A3029 RMK A01 T10221130  RH  043%=      5-min Rain = 0
KHA1 120530Z 08005KT M02/M13 A3029 RMK A01 T10231130  RH  043%=      5-min Rain = 0
KHA1 120535Z 08005KT M02/M13 A3029 RMK A01 T10241130  RH  044%=      5-min Rain = 0
KHA1 120540Z 08005KT M03/M13 A3029 RMK A01 T10251130  RH  044%=      5-min Rain = 0
KHA1 120545Z 08005KT M03/M13 A3029 RMK A01 T10251130  RH  044%=      5-min Rain = 0
KHA1 120550Z 09005KT M03/M13 A303 RMK A01 T10251130  RH  044%=      5-min Rain = 0
KHA1 120555Z 10004KT M03/M13 A303 RMK A01 T10261130  RH  044%=      5-min Rain = 0

Page generated in 0.0211 seconds.